createdAt,value
2018-06-19T00:01:16.338Z,25.60
2018-06-19T00:02:51.830Z,25.79
2018-06-19T00:04:27.788Z,25.67
2018-06-19T00:06:03.294Z,25.97
2018-06-19T00:07:38.838Z,25.68
2018-06-19T00:09:14.430Z,26.01
2018-06-19T00:10:49.973Z,25.99
2018-06-19T00:12:25.484Z,26.17
2018-06-19T00:14:01.183Z,26.22
2018-06-19T00:15:37.032Z,26.27
2018-06-19T00:17:13.455Z,26.33
2018-06-19T00:18:55.156Z,26.16
2018-06-19T00:20:30.679Z,26.27
2018-06-19T00:22:06.288Z,26.25
2018-06-19T00:23:42.505Z,26.21
2018-06-19T00:25:18.314Z,26.43
2018-06-19T00:26:54.149Z,26.43
2018-06-19T00:28:29.989Z,26.12
2018-06-19T00:30:06.581Z,26.00
2018-06-19T00:31:43.177Z,26.02
2018-06-19T00:33:19.584Z,25.92
2018-06-19T00:34:55.124Z,26.14
2018-06-19T00:36:30.706Z,25.97
2018-06-19T00:38:07.457Z,26.16
2018-06-19T00:39:43.018Z,26.08
2018-06-19T00:41:18.528Z,25.98
2018-06-19T00:42:54.136Z,25.89
2018-06-19T00:44:29.849Z,26.18
2018-06-19T00:46:06.391Z,26.27
2018-06-19T00:47:42.533Z,25.53
2018-06-19T00:49:18.092Z,25.43
2018-06-19T00:50:54.439Z,25.45
2018-06-19T00:52:30.018Z,25.76
2018-06-19T00:54:05.576Z,25.69
2018-06-19T00:55:41.155Z,25.73
2018-06-19T00:57:18.754Z,25.91
2018-06-19T00:58:54.647Z,26.01
2018-06-19T01:00:30.149Z,26.18
2018-06-19T01:02:05.888Z,26.29
2018-06-19T01:03:41.398Z,26.18
2018-06-19T01:05:17.363Z,26.22
2018-06-19T01:06:53.142Z,25.97
2018-06-19T01:08:28.665Z,26.03
2018-06-19T01:10:04.291Z,26.12
2018-06-19T01:11:40.382Z,25.71
2018-06-19T01:13:16.865Z,25.85
2018-06-19T01:14:52.628Z,25.96
2018-06-19T01:16:28.136Z,26.14
2018-06-19T01:18:05.083Z,25.92
2018-06-19T01:19:41.194Z,25.97
2018-06-19T01:21:17.871Z,26.22
2018-06-19T01:22:54.244Z,26.37
2018-06-19T01:24:30.427Z,26.31
2018-06-19T01:26:05.993Z,26.31
2018-06-19T01:27:41.735Z,26.26
2018-06-19T01:29:17.246Z,26.20
2018-06-19T01:30:53.167Z,26.04
2018-06-19T01:32:29.672Z,26.24
2018-06-19T01:34:05.620Z,26.48
2018-06-19T01:35:41.346Z,26.56
2018-06-19T01:37:16.903Z,26.54
2018-06-19T01:38:52.661Z,25.95
2018-06-19T01:40:29.309Z,25.74
2018-06-19T01:42:04.864Z,25.78
2018-06-19T01:43:40.868Z,26.19
2018-06-19T01:45:16.678Z,26.01
2018-06-19T01:46:52.758Z,26.24
2018-06-19T01:48:29.083Z,26.60
2018-06-19T01:50:05.091Z,26.84
2018-06-19T01:51:42.458Z,26.95
2018-06-19T01:53:18.692Z,27.13
2018-06-19T01:54:54.398Z,27.04
2018-06-19T01:56:29.964Z,26.85
2018-06-19T01:58:05.873Z,26.81
2018-06-19T01:59:41.508Z,26.36
2018-06-19T02:01:17.780Z,26.10
2018-06-19T02:02:53.855Z,26.11
2018-06-19T02:04:29.410Z,26.47
2018-06-19T02:06:04.971Z,26.66
2018-06-19T02:07:40.534Z,26.89
2018-06-19T02:09:16.059Z,26.96
2018-06-19T02:10:51.570Z,26.90
2018-06-19T02:12:27.107Z,26.79
2018-06-19T02:14:03.599Z,26.75
2018-06-19T02:15:39.139Z,26.91
2018-06-19T02:17:14.914Z,26.94
2018-06-19T02:18:50.419Z,26.76
2018-06-19T02:20:26.025Z,26.77
2018-06-19T02:22:01.992Z,27.01
2018-06-19T02:23:37.777Z,26.90
2018-06-19T02:25:13.310Z,26.51
2018-06-19T02:26:48.814Z,26.58
2018-06-19T02:28:24.740Z,26.97
2018-06-19T02:30:00.287Z,27.22
2018-06-19T02:31:36.530Z,27.51
2018-06-19T02:33:12.016Z,27.56
2018-06-19T02:34:48.250Z,27.48
2018-06-19T02:36:23.873Z,27.24
2018-06-19T02:37:59.693Z,27.30
2018-06-19T02:39:35.257Z,27.36
2018-06-19T02:41:10.764Z,27.47
2018-06-19T02:42:46.314Z,27.44
2018-06-19T02:44:21.993Z,27.42
2018-06-19T02:45:58.076Z,27.08
2018-06-19T02:47:33.595Z,27.55
2018-06-19T02:49:09.185Z,27.42
2018-06-19T02:50:44.774Z,27.46
2018-06-19T02:52:20.299Z,27.22
2018-06-19T02:53:55.804Z,27.16
2018-06-19T02:55:32.663Z,26.92
2018-06-19T02:57:09.056Z,26.56
2018-06-19T02:58:44.635Z,26.48
2018-06-19T03:00:20.314Z,26.44
2018-06-19T03:01:55.866Z,26.58
2018-06-19T03:03:31.404Z,26.61
2018-06-19T03:05:06.994Z,26.45
2018-06-19T03:06:42.524Z,26.73
2018-06-19T03:08:19.002Z,26.74
2018-06-19T03:09:55.567Z,26.84
2018-06-19T03:11:31.131Z,26.85
2018-06-19T03:13:06.825Z,26.93
2018-06-19T03:14:42.404Z,27.27
2018-06-19T03:16:17.967Z,27.41
2018-06-19T03:17:53.650Z,27.49
2018-06-19T03:19:29.186Z,27.72
2018-06-19T03:21:04.776Z,27.43
2018-06-19T03:22:40.775Z,27.51
2018-06-19T03:24:16.709Z,27.42
2018-06-19T03:25:52.215Z,27.22
2018-06-19T03:27:27.719Z,27.37
2018-06-19T03:29:03.251Z,27.46
2018-06-19T03:30:38.808Z,27.30
2018-06-19T03:32:14.347Z,27.35
2018-06-19T03:33:49.948Z,27.29
2018-06-19T03:35:25.685Z,27.41
2018-06-19T03:37:01.259Z,27.10
2018-06-19T03:38:36.826Z,27.57
2018-06-19T03:40:12.447Z,27.45
2018-06-19T03:41:49.000Z,27.17
2018-06-19T03:43:24.566Z,27.29
2018-06-19T03:45:00.522Z,27.20
2018-06-19T03:46:36.075Z,27.35
2018-06-19T03:48:11.634Z,27.19
2018-06-19T03:49:47.276Z,27.09
2018-06-19T03:51:22.903Z,27.26
2018-06-19T03:52:58.429Z,27.08
2018-06-19T03:54:33.978Z,27.21
2018-06-19T03:56:11.299Z,27.41
2018-06-19T03:57:46.807Z,27.35
2018-06-19T03:59:22.559Z,27.30
2018-06-19T04:00:58.348Z,27.27
2018-06-19T04:02:33.991Z,27.61
2018-06-19T04:04:10.176Z,27.59
2018-06-19T04:05:45.756Z,27.70
2018-06-19T04:07:21.279Z,27.89
2018-06-19T04:08:57.644Z,28.02
2018-06-19T04:10:34.126Z,27.62
2018-06-19T04:12:09.706Z,28.09
2018-06-19T04:13:46.123Z,29.89
2018-06-19T04:15:21.724Z,31.04
2018-06-19T04:16:57.344Z,33.45
2018-06-19T04:18:32.824Z,34.97
2018-06-19T04:20:08.343Z,36.41
2018-06-19T04:21:43.855Z,36.59
2018-06-19T04:23:19.379Z,35.46
2018-06-19T04:24:55.303Z,35.96
2018-06-19T04:26:30.846Z,37.50
2018-06-19T04:28:06.471Z,36.84
2018-06-19T04:29:42.570Z,33.99
2018-06-19T04:31:18.183Z,32.18
2018-06-19T04:32:54.026Z,30.36
2018-06-19T04:34:29.529Z,30.75
2018-06-19T04:36:06.556Z,33.51
2018-06-19T04:37:42.123Z,35.69
2018-06-19T04:39:17.761Z,36.43
2018-06-19T04:40:53.396Z,37.42
2018-06-19T04:42:29.010Z,37.42
2018-06-19T04:44:06.270Z,38.04
2018-06-19T04:45:42.171Z,37.76
2018-06-19T04:47:17.799Z,38.54
2018-06-19T04:48:59.139Z,38.43
2018-06-19T04:50:34.678Z,38.90
2018-06-19T04:52:10.291Z,39.13
2018-06-19T04:53:48.230Z,39.10
2018-06-19T04:55:23.754Z,38.99
2018-06-19T04:57:00.075Z,38.97
2018-06-19T04:58:35.907Z,38.54
2018-06-19T05:00:11.446Z,37.58
2018-06-19T05:01:47.083Z,36.84
2018-06-19T05:03:22.731Z,35.25
2018-06-19T05:04:58.322Z,34.18
2018-06-19T05:06:39.670Z,33.58
2018-06-19T05:08:15.314Z,33.24
2018-06-19T05:09:51.164Z,33.39
2018-06-19T05:11:26.797Z,33.93
2018-06-19T05:13:02.453Z,33.86
2018-06-19T05:14:38.074Z,33.65
2018-06-19T05:16:13.689Z,33.13
2018-06-19T05:17:49.512Z,33.14
2018-06-19T05:19:25.327Z,33.35
2018-06-19T05:21:00.996Z,32.87
2018-06-19T05:22:36.607Z,32.71
2018-06-19T05:24:12.147Z,32.54
2018-06-19T05:25:47.726Z,32.87
2018-06-19T05:27:23.264Z,32.53
2018-06-19T05:28:59.316Z,32.43
2018-06-19T05:30:35.042Z,32.26
2018-06-19T05:32:10.666Z,32.23
2018-06-19T05:33:46.277Z,32.63
2018-06-19T05:35:21.791Z,32.43
2018-06-19T05:36:57.512Z,32.61
2018-06-19T05:38:34.247Z,32.17
2018-06-19T05:40:09.823Z,32.04
2018-06-19T05:41:45.846Z,31.99
2018-06-19T05:43:22.298Z,32.23
2018-06-19T05:44:57.834Z,32.57
2018-06-19T05:46:33.537Z,32.58
2018-06-19T05:48:09.811Z,32.43
2018-06-19T05:49:45.392Z,32.76
2018-06-19T05:51:21.541Z,32.88
2018-06-19T05:52:57.158Z,33.04
2018-06-19T05:54:32.792Z,32.60
2018-06-19T05:56:08.384Z,32.73
2018-06-19T05:57:43.878Z,32.92
2018-06-19T05:59:19.422Z,33.17
2018-06-19T06:00:55.066Z,33.31
2018-06-19T06:02:30.657Z,32.65
2018-06-19T06:04:06.251Z,32.30
2018-06-19T06:05:41.940Z,32.99
2018-06-19T06:07:19.359Z,33.03
2018-06-19T06:08:55.705Z,33.05
2018-06-19T06:10:31.273Z,33.29
2018-06-19T06:12:06.812Z,33.35
2018-06-19T06:13:42.507Z,32.93
2018-06-19T06:15:18.039Z,32.59
2018-06-19T06:16:53.915Z,32.77
2018-06-19T06:18:29.444Z,32.74
2018-06-19T06:20:05.330Z,32.69
2018-06-19T06:21:40.908Z,31.42
2018-06-19T06:23:16.960Z,32.01
2018-06-19T06:24:52.457Z,32.32
2018-06-19T06:26:27.985Z,32.34
2018-06-19T06:28:03.871Z,31.81
2018-06-19T06:29:39.391Z,31.54
2018-06-19T06:31:15.022Z,32.67
2018-06-19T06:32:50.643Z,33.17
2018-06-19T06:34:26.238Z,33.33
2018-06-19T06:36:01.839Z,33.58
2018-06-19T06:37:37.476Z,33.43
2018-06-19T06:39:13.030Z,33.26
2018-06-19T06:40:48.577Z,33.19
2018-06-19T06:42:24.183Z,32.66
2018-06-19T06:43:59.770Z,32.10
2018-06-19T06:45:35.374Z,32.31
2018-06-19T06:47:10.935Z,31.81
2018-06-19T06:48:46.490Z,32.61
2018-06-19T06:50:22.137Z,32.82
2018-06-19T06:51:57.820Z,32.57
2018-06-19T06:53:33.550Z,31.19
2018-06-19T06:55:09.107Z,31.80
2018-06-19T06:56:44.708Z,32.02
2018-06-19T06:58:20.308Z,32.11
2018-06-19T06:59:55.897Z,31.53
2018-06-19T07:01:31.471Z,31.32
2018-06-19T07:03:07.034Z,31.67
2018-06-19T07:04:42.599Z,31.19
2018-06-19T07:06:18.106Z,31.14
2018-06-19T07:07:53.631Z,31.39
2018-06-19T07:09:29.184Z,31.70
2018-06-19T07:11:04.740Z,31.51
2018-06-19T07:12:40.258Z,31.92
2018-06-19T07:14:15.747Z,31.80
2018-06-19T07:15:51.324Z,31.81
2018-06-19T07:17:26.894Z,32.57
2018-06-19T07:19:02.483Z,32.21
2018-06-19T07:20:39.220Z,31.98
2018-06-19T07:22:14.753Z,32.63
2018-06-19T07:23:50.310Z,31.52
2018-06-19T07:25:25.870Z,32.36
2018-06-19T07:27:01.486Z,33.47
2018-06-19T07:28:37.083Z,33.76
2018-06-19T07:30:12.717Z,33.19
2018-06-19T07:31:48.358Z,33.28
2018-06-19T07:33:24.558Z,33.53
2018-06-19T07:35:00.147Z,33.57
2018-06-19T07:36:35.682Z,33.78
2018-06-19T07:38:11.418Z,33.55
2018-06-19T07:39:46.971Z,33.52
2018-06-19T07:41:22.601Z,33.11
2018-06-19T07:43:02.168Z,33.69
2018-06-19T07:44:37.732Z,34.06
2018-06-19T07:46:13.306Z,34.20
2018-06-19T07:47:48.936Z,34.09
2018-06-19T07:49:24.511Z,33.95
2018-06-19T07:51:05.778Z,33.45
2018-06-19T07:52:41.333Z,33.23
2018-06-19T07:54:16.911Z,33.46
2018-06-19T07:55:52.518Z,33.81
2018-06-19T07:57:28.245Z,33.06
2018-06-19T07:59:03.916Z,33.33
2018-06-19T08:00:39.517Z,33.37
2018-06-19T08:02:15.128Z,33.74
2018-06-19T08:03:50.777Z,32.78
2018-06-19T08:05:26.716Z,33.53
2018-06-19T08:07:06.477Z,34.12
2018-06-19T08:08:42.101Z,34.24
2018-06-19T08:10:17.672Z,33.85
2018-06-19T08:11:53.197Z,34.50
2018-06-19T08:13:28.881Z,33.94
2018-06-19T08:15:04.536Z,33.06
2018-06-19T08:16:40.151Z,33.17
2018-06-19T08:18:15.715Z,33.22
2018-06-19T08:19:51.283Z,33.58
2018-06-19T08:21:27.241Z,33.57
2018-06-19T08:23:04.238Z,33.50
2018-06-19T08:24:39.814Z,33.41
2018-06-19T08:26:15.405Z,33.61
2018-06-19T08:27:50.984Z,33.93
2018-06-19T08:29:26.535Z,33.35
2018-06-19T08:31:02.101Z,33.89
2018-06-19T08:32:37.663Z,34.08
2018-06-19T08:34:13.271Z,33.89
2018-06-19T08:35:48.887Z,33.66
2018-06-19T08:37:24.917Z,33.96
2018-06-19T08:39:00.548Z,34.29
2018-06-19T08:40:36.154Z,34.21
2018-06-19T08:42:12.306Z,33.79
2018-06-19T08:43:48.047Z,33.69
2018-06-19T08:45:23.630Z,33.57
2018-06-19T08:46:59.256Z,34.01
2018-06-19T08:48:34.890Z,34.04
2018-06-19T08:50:10.517Z,33.76
2018-06-19T08:51:46.100Z,34.26
2018-06-19T08:53:21.642Z,34.11
2018-06-19T08:54:57.240Z,33.60
2018-06-19T08:56:33.428Z,33.80
2018-06-19T08:58:10.715Z,33.73
2018-06-19T08:59:46.373Z,33.42
2018-06-19T09:01:21.992Z,33.70
2018-06-19T09:02:57.649Z,33.11
2018-06-19T09:04:33.278Z,32.21
2018-06-19T09:06:08.843Z,32.70
2018-06-19T09:07:44.580Z,33.02
2018-06-19T09:09:20.319Z,33.18
2018-06-19T09:10:55.947Z,32.96
2018-06-19T09:12:31.547Z,33.16
2018-06-19T09:14:07.346Z,33.34
2018-06-19T09:15:42.980Z,33.55
2018-06-19T09:17:18.525Z,33.35
2018-06-19T09:18:54.104Z,33.91
2018-06-19T09:20:29.765Z,33.81
2018-06-19T09:22:05.227Z,33.50
2018-06-19T09:23:40.799Z,33.14
2018-06-19T09:25:16.417Z,33.31
2018-06-19T09:26:52.006Z,32.44
2018-06-19T09:28:27.559Z,32.34
2018-06-19T09:30:03.168Z,31.82
2018-06-19T09:31:38.784Z,31.71
2018-06-19T09:33:14.311Z,31.21
2018-06-19T09:34:49.948Z,31.62
2018-06-19T09:36:26.150Z,31.21
2018-06-19T09:38:01.783Z,31.17
2018-06-19T09:39:37.490Z,31.52
2018-06-19T09:41:14.520Z,31.65
2018-06-19T09:42:50.063Z,31.59
2018-06-19T09:44:25.650Z,30.19
2018-06-19T09:46:01.878Z,27.54
2018-06-19T09:47:37.600Z,26.65
2018-06-19T09:49:13.388Z,26.58
2018-06-19T09:50:49.096Z,26.79
2018-06-19T09:52:24.627Z,26.56
2018-06-19T09:54:00.345Z,26.68
2018-06-19T09:55:35.907Z,26.49
2018-06-19T09:57:11.592Z,26.44
2018-06-19T09:58:47.275Z,26.48
2018-06-19T10:00:28.176Z,26.24
2018-06-19T10:02:03.719Z,26.11
2018-06-19T10:03:39.389Z,26.21
2018-06-19T10:05:14.955Z,26.26
2018-06-19T10:06:50.517Z,26.37
2018-06-19T10:08:26.116Z,26.18
2018-06-19T10:10:01.997Z,26.38
2018-06-19T10:11:37.671Z,26.51
2018-06-19T10:13:13.229Z,26.54
2018-06-19T10:14:48.856Z,26.41
2018-06-19T10:16:24.416Z,26.69
2018-06-19T10:18:00.216Z,26.87
2018-06-19T10:19:35.832Z,27.21
2018-06-19T10:21:11.364Z,27.89
2018-06-19T10:22:47.626Z,28.03
2018-06-19T10:24:23.658Z,27.65
2018-06-19T10:25:59.154Z,27.55
2018-06-19T10:27:34.731Z,27.65
2018-06-19T10:29:10.264Z,27.84
2018-06-19T10:30:46.583Z,28.12
2018-06-19T10:32:22.919Z,27.72
2018-06-19T10:33:58.417Z,27.49
2018-06-19T10:35:33.960Z,27.78
2018-06-19T10:37:09.519Z,27.66
2018-06-19T10:38:45.091Z,27.77
2018-06-19T10:40:20.664Z,27.91
2018-06-19T10:41:56.235Z,28.27
2018-06-19T10:43:31.865Z,28.48
2018-06-19T10:45:07.484Z,28.28
2018-06-19T10:46:43.093Z,28.19
2018-06-19T10:48:18.915Z,28.50
2018-06-19T10:49:55.031Z,28.91
2018-06-19T10:51:30.704Z,29.10
2018-06-19T10:53:06.347Z,29.07
2018-06-19T10:54:41.903Z,29.21
2018-06-19T10:56:17.754Z,29.20
2018-06-19T10:57:53.813Z,29.49
2018-06-19T10:59:29.885Z,29.08
2018-06-19T11:01:05.591Z,28.47
2018-06-19T11:02:42.415Z,28.68
2018-06-19T11:04:21.361Z,28.69
2018-06-19T11:05:57.337Z,28.95
2018-06-19T11:07:32.884Z,28.52
2018-06-19T11:09:09.994Z,28.44
2018-06-19T11:10:46.174Z,28.24
2018-06-19T11:12:21.798Z,28.41
2018-06-19T11:13:57.543Z,28.83
2018-06-19T11:15:33.843Z,29.08
2018-06-19T11:17:12.038Z,29.00
2018-06-19T11:18:47.755Z,29.26
2018-06-19T11:20:23.876Z,29.44
2018-06-19T11:21:59.483Z,29.25
2018-06-19T11:23:37.869Z,29.25
2018-06-19T11:25:13.719Z,29.24
2018-06-19T11:26:52.890Z,29.58
2018-06-19T11:28:28.494Z,29.90
2018-06-19T11:30:04.271Z,29.70
2018-06-19T11:31:39.904Z,29.38
2018-06-19T11:33:15.555Z,28.90
2018-06-19T11:34:51.094Z,29.20
2018-06-19T11:36:26.628Z,29.73
2018-06-19T11:38:03.051Z,30.06
2018-06-19T11:39:39.136Z,29.77
2018-06-19T11:41:14.725Z,29.79
2018-06-19T11:42:50.309Z,29.48
2018-06-19T11:44:25.896Z,29.70
2018-06-19T11:46:02.216Z,29.67
2018-06-19T11:47:37.816Z,29.51
2018-06-19T11:49:13.529Z,29.91
2018-06-19T11:50:48.995Z,29.80
2018-06-19T11:52:24.615Z,29.86
2018-06-19T11:54:00.505Z,29.93
2018-06-19T11:55:36.076Z,30.11
2018-06-19T11:57:11.637Z,29.87
2018-06-19T11:58:47.643Z,29.67
2018-06-19T12:00:23.248Z,29.94
2018-06-19T12:01:59.041Z,29.99
2018-06-19T12:03:34.764Z,29.23
2018-06-19T12:05:10.301Z,29.31
2018-06-19T12:06:45.889Z,29.59
2018-06-19T12:08:21.868Z,29.95
2018-06-19T12:09:57.464Z,30.07
2018-06-19T12:11:33.067Z,29.48
2018-06-19T12:13:08.728Z,29.14
2018-06-19T12:14:45.408Z,29.39
2018-06-19T12:16:21.083Z,29.17
2018-06-19T12:17:56.827Z,29.06
2018-06-19T12:19:32.402Z,29.40
2018-06-19T12:21:08.048Z,29.80
2018-06-19T12:22:43.710Z,29.98
2018-06-19T12:24:19.353Z,29.16
2018-06-19T12:25:54.958Z,29.03
2018-06-19T12:27:30.506Z,28.94
2018-06-19T12:29:06.062Z,28.77
2018-06-19T12:30:41.712Z,28.59
2018-06-19T12:32:17.299Z,28.42
2018-06-19T12:33:52.895Z,29.05
2018-06-19T12:35:28.510Z,29.33
2018-06-19T12:37:04.092Z,29.16
2018-06-19T12:38:39.712Z,29.36
2018-06-19T12:40:15.350Z,29.68
2018-06-19T12:41:50.911Z,29.62
2018-06-19T12:43:26.670Z,28.98
2018-06-19T12:45:04.456Z,29.57
2018-06-19T12:46:44.887Z,29.40
2018-06-19T12:48:21.777Z,29.56
2018-06-19T12:50:39.036Z,30.09
2018-06-19T12:54:29.878Z,30.11
2018-06-19T12:56:25.507Z,29.27
2018-06-19T12:58:01.863Z,29.32
2018-06-19T12:59:37.892Z,29.38
2018-06-19T13:01:14.291Z,29.45
2018-06-19T13:03:01.740Z,30.03
2018-06-19T13:04:50.371Z,29.47
2018-06-19T13:06:33.838Z,28.85
2018-06-19T13:08:10.068Z,28.90
2018-06-19T13:09:48.198Z,28.78
2018-06-19T13:11:25.963Z,29.18
2018-06-19T13:13:24.784Z,28.83
2018-06-19T13:15:03.084Z,28.71
2018-06-19T13:16:49.851Z,28.29
2018-06-19T13:18:41.746Z,28.57
2018-06-19T13:20:30.471Z,28.30
2018-06-19T13:22:12.559Z,28.48
2018-06-19T13:23:53.544Z,28.71
2018-06-19T13:25:34.432Z,28.82
2018-06-19T13:27:14.709Z,28.83
2018-06-19T13:30:05.884Z,28.89
2018-06-19T13:31:49.247Z,28.82
2018-06-19T13:33:26.986Z,28.75
2018-06-19T13:35:07.657Z,28.76
2018-06-19T13:36:46.427Z,29.00
2018-06-19T13:38:23.229Z,28.95
2018-06-19T13:41:26.155Z,29.03
2018-06-19T13:45:12.984Z,29.10
2018-06-19T13:46:56.739Z,28.94
2018-06-19T13:48:37.648Z,28.89
2018-06-19T13:50:16.730Z,28.84
2018-06-19T13:51:57.522Z,29.02
2018-06-19T13:53:35.800Z,28.77
2018-06-19T13:57:29.559Z,28.42
2018-06-19T13:59:09.184Z,28.40
2018-06-19T14:00:47.540Z,28.40
2018-06-19T14:02:25.674Z,28.31
2018-06-19T14:04:07.164Z,28.23
2018-06-19T14:05:45.042Z,27.91
2018-06-19T14:07:21.593Z,28.08
2018-06-19T14:09:17.554Z,28.18
2018-06-19T14:11:09.175Z,28.67
2018-06-19T14:12:59.360Z,28.85
2018-06-19T14:14:36.658Z,28.70
2018-06-19T14:16:14.264Z,28.80
2018-06-19T14:17:51.063Z,28.75
2018-06-19T14:19:26.831Z,28.60
2018-06-19T14:21:02.432Z,29.02
2018-06-19T14:22:42.223Z,29.28
2018-06-19T14:24:19.316Z,29.07
2018-06-19T14:25:58.885Z,28.94
2018-06-19T14:27:36.876Z,29.08
2018-06-19T14:29:13.112Z,28.91
2018-06-19T14:30:49.528Z,29.08
2018-06-19T14:32:26.777Z,29.12
2018-06-19T14:34:03.141Z,29.44
2018-06-19T14:35:39.138Z,29.24
2018-06-19T14:37:24.000Z,28.63
2018-06-19T14:39:00.128Z,29.08
2018-06-19T14:40:35.796Z,28.90
2018-06-19T14:42:11.679Z,28.83
2018-06-19T14:43:50.003Z,28.78
2018-06-19T14:45:27.400Z,28.86
2018-06-19T14:47:03.819Z,29.01
2018-06-19T14:48:41.179Z,28.87
2018-06-19T14:50:16.943Z,28.82
2018-06-19T14:51:54.796Z,28.52
2018-06-19T14:53:30.414Z,28.14
2018-06-19T14:55:06.709Z,28.38
2018-06-19T14:56:42.342Z,28.43
2018-06-19T14:58:18.824Z,28.89
2018-06-19T14:59:54.445Z,28.75
2018-06-19T15:01:30.842Z,28.45
2018-06-19T15:03:07.696Z,28.31
2018-06-19T15:04:43.442Z,28.45
2018-06-19T15:06:19.816Z,28.67
2018-06-19T15:07:56.264Z,28.72
2018-06-19T15:09:33.702Z,28.22
2018-06-19T15:11:09.299Z,27.91
2018-06-19T15:12:44.903Z,27.92
2018-06-19T15:14:25.852Z,27.87
2018-06-19T15:16:02.743Z,27.92
2018-06-19T15:17:38.504Z,27.77
2018-06-19T15:19:14.548Z,27.81
2018-06-19T15:20:52.834Z,27.68
2018-06-19T15:22:28.580Z,27.58
2018-06-19T15:24:11.681Z,27.60
2018-06-19T15:25:47.987Z,27.63
2018-06-19T15:27:23.990Z,27.67
2018-06-19T15:28:59.922Z,27.79
2018-06-19T15:30:35.965Z,27.81
2018-06-19T15:32:11.527Z,27.50
2018-06-19T15:33:47.132Z,27.38
2018-06-19T15:35:23.208Z,27.16
2018-06-19T15:36:58.808Z,26.85
2018-06-19T15:38:34.378Z,26.88
2018-06-19T15:40:09.984Z,26.72
2018-06-19T15:41:45.543Z,26.73
2018-06-19T15:43:21.130Z,26.53
2018-06-19T15:44:57.602Z,26.67
2018-06-19T15:46:33.165Z,26.69
2018-06-19T15:48:08.789Z,26.94
2018-06-19T15:49:45.488Z,27.07
2018-06-19T15:51:21.536Z,27.01
2018-06-19T15:52:57.119Z,27.00
2018-06-19T15:54:32.723Z,26.96
2018-06-19T15:56:08.291Z,26.91
2018-06-19T15:57:43.991Z,27.06
2018-06-19T15:59:19.917Z,26.81
2018-06-19T16:00:56.591Z,26.89
2018-06-19T16:02:32.645Z,27.06
2018-06-19T16:04:08.234Z,27.08
2018-06-19T16:05:43.851Z,26.87
2018-06-19T16:07:19.447Z,26.77
2018-06-19T16:08:55.012Z,26.68
2018-06-19T16:10:30.667Z,26.90
2018-06-19T16:12:06.460Z,27.14
2018-06-19T16:13:42.028Z,27.29
2018-06-19T16:15:17.831Z,27.34
2018-06-19T16:16:53.766Z,27.43
2018-06-19T16:18:29.380Z,27.25
2018-06-19T16:20:05.878Z,27.17
2018-06-19T16:21:42.011Z,27.20
2018-06-19T16:23:17.693Z,27.13
2018-06-19T16:24:53.974Z,27.37
2018-06-19T16:26:31.328Z,27.37
2018-06-19T16:28:14.970Z,27.07
2018-06-19T16:29:53.036Z,27.01
2018-06-19T16:31:30.764Z,26.74
2018-06-19T16:33:06.498Z,26.56
2018-06-19T16:34:43.521Z,26.60
2018-06-19T16:36:19.918Z,25.28
2018-06-19T16:37:56.323Z,26.31
2018-06-19T16:39:36.321Z,26.33
2018-06-19T16:41:12.363Z,26.47
2018-06-19T16:42:58.739Z,26.50
2018-06-19T16:44:35.228Z,26.63
2018-06-19T16:46:10.859Z,26.85
2018-06-19T16:47:46.527Z,26.63
2018-06-19T16:49:22.165Z,26.49
2018-06-19T16:50:57.777Z,26.10
2018-06-19T16:52:33.413Z,26.08
2018-06-19T16:54:09.757Z,26.24
2018-06-19T16:55:45.416Z,26.26
2018-06-19T16:57:21.012Z,26.58
2018-06-19T16:58:56.611Z,26.78
2018-06-19T17:00:32.603Z,26.59
2018-06-19T17:02:08.353Z,26.44
2018-06-19T17:03:48.665Z,26.70
2018-06-19T17:05:28.030Z,26.78
2018-06-19T17:07:03.704Z,26.67
2018-06-19T17:08:39.413Z,26.54
2018-06-19T17:10:16.995Z,26.52
2018-06-19T17:11:54.555Z,26.37
2018-06-19T17:13:30.384Z,26.37
2018-06-19T17:15:06.799Z,26.38
2018-06-19T17:16:45.197Z,26.71
2018-06-19T17:18:26.237Z,26.81
2018-06-19T17:20:14.337Z,27.06
2018-06-19T17:21:50.539Z,27.19
2018-06-19T17:23:27.006Z,27.19
2018-06-19T17:25:02.988Z,27.11
2018-06-19T17:26:41.523Z,27.07
2018-06-19T17:28:28.141Z,27.11
2018-06-19T17:30:05.560Z,27.03
2018-06-19T17:31:41.987Z,26.98
2018-06-19T17:33:19.256Z,26.85
2018-06-19T17:34:56.333Z,26.93
2018-06-19T17:36:44.444Z,26.81
2018-06-19T17:38:23.211Z,26.57
2018-06-19T17:40:01.359Z,26.39
2018-06-19T17:41:48.177Z,26.12
2018-06-19T17:43:31.410Z,26.27
2018-06-19T17:45:15.557Z,26.47
2018-06-19T17:47:00.875Z,26.40
2018-06-19T17:48:43.882Z,26.61
2018-06-19T17:50:21.461Z,26.43
2018-06-19T17:52:01.909Z,26.45
2018-06-19T17:53:41.084Z,26.47
2018-06-19T17:55:24.585Z,26.36
2018-06-19T17:57:05.396Z,26.35
2018-06-19T18:00:29.051Z,26.23
2018-06-19T18:02:12.477Z,26.23
2018-06-19T18:03:53.907Z,26.08
2018-06-19T18:05:39.351Z,26.02
2018-06-19T18:07:19.497Z,26.14
2018-06-19T18:09:02.223Z,25.90
2018-06-19T18:10:37.887Z,26.06
2018-06-19T18:12:14.918Z,26.16
2018-06-19T18:13:56.544Z,26.08
2018-06-19T18:15:55.011Z,26.11
2018-06-19T18:17:37.191Z,26.19
2018-06-19T18:19:20.553Z,26.27
2018-06-19T18:21:00.260Z,26.21
2018-06-19T18:22:45.149Z,26.09
2018-06-19T18:24:28.098Z,26.10
2018-06-19T18:26:09.079Z,26.14
2018-06-19T18:27:49.097Z,26.00
2018-06-19T18:29:28.950Z,26.03
2018-06-19T18:31:09.551Z,26.13
2018-06-19T18:32:49.589Z,26.02
2018-06-19T18:34:30.508Z,26.08
2018-06-19T18:36:11.566Z,25.97
2018-06-19T18:37:53.064Z,25.97
2018-06-19T18:39:36.469Z,25.77
2018-06-19T18:41:15.579Z,25.77
2018-06-19T18:42:53.166Z,25.74
2018-06-19T18:44:30.256Z,25.70
2018-06-19T18:46:10.619Z,25.62
2018-06-19T18:47:47.937Z,25.65
2018-06-19T18:49:29.658Z,25.60
2018-06-19T18:51:09.347Z,25.52
2018-06-19T18:52:50.029Z,25.50
2018-06-19T18:54:26.187Z,25.42
2018-06-19T18:56:06.019Z,25.26
2018-06-19T18:57:42.791Z,25.15
2018-06-19T18:59:18.367Z,25.18
2018-06-19T19:00:55.657Z,25.04
2018-06-19T19:02:33.550Z,24.91
2018-06-19T19:04:10.995Z,24.79
2018-06-19T19:05:57.700Z,24.75
2018-06-19T19:07:43.849Z,24.61
2018-06-19T19:09:27.563Z,24.41
2018-06-19T19:11:13.507Z,24.35
2018-06-19T19:13:09.299Z,24.30
2018-06-19T19:14:59.621Z,24.34
2018-06-19T19:18:31.711Z,24.18
2018-06-19T19:20:10.664Z,24.15
2018-06-19T19:21:52.140Z,24.16
2018-06-19T19:27:32.039Z,23.93
2018-06-19T19:29:15.776Z,23.90
2018-06-19T19:32:35.981Z,23.70
2018-06-19T19:34:12.775Z,23.65
2018-06-19T19:36:10.750Z,23.58
2018-06-19T19:38:06.660Z,23.49
2018-06-19T19:39:46.214Z,23.36
2018-06-19T19:41:25.575Z,23.23
2018-06-19T19:44:50.254Z,23.09
2018-06-19T19:46:34.961Z,23.04
2018-06-19T19:48:22.859Z,23.00
2018-06-19T19:49:58.532Z,22.90
2018-06-19T19:51:34.111Z,22.93
2018-06-19T19:53:10.387Z,22.73
2018-06-19T19:54:47.423Z,22.68
2018-06-19T19:56:29.297Z,22.64
2018-06-19T19:58:16.442Z,22.65
2018-06-19T19:59:56.883Z,22.58
2018-06-19T20:01:32.906Z,22.48
2018-06-19T20:03:11.173Z,22.53
2018-06-19T20:04:49.158Z,22.51
2018-06-19T20:06:27.338Z,22.40
2018-06-19T20:08:02.914Z,22.31
2018-06-19T20:09:42.582Z,22.19
2018-06-19T20:11:22.288Z,22.17
2018-06-19T20:13:06.353Z,22.08
2018-06-19T20:14:41.904Z,22.07
2018-06-19T20:16:17.519Z,22.14
2018-06-19T20:17:53.110Z,22.17
2018-06-19T20:19:28.683Z,22.24
2018-06-19T20:21:05.077Z,22.20
2018-06-19T20:22:41.339Z,22.14
2018-06-19T20:24:16.858Z,22.06
2018-06-19T20:25:52.397Z,22.01
2018-06-19T20:27:29.231Z,22.02
2018-06-19T20:29:19.668Z,21.96
2018-06-19T20:31:09.127Z,21.87
2018-06-19T20:32:45.047Z,21.85
2018-06-19T20:34:20.562Z,21.83
2018-06-19T20:35:56.087Z,21.74
2018-06-19T20:37:31.965Z,21.81
2018-06-19T20:39:09.285Z,21.80
2018-06-19T20:40:44.863Z,21.83
2018-06-19T20:42:20.464Z,21.77
2018-06-19T20:43:56.089Z,21.66
2018-06-19T20:45:31.660Z,21.66
2018-06-19T20:47:07.226Z,21.62
2018-06-19T20:48:42.835Z,21.59
2018-06-19T20:50:18.403Z,21.67
2018-06-19T20:51:53.959Z,21.69
2018-06-19T20:53:29.519Z,21.57
2018-06-19T20:55:05.150Z,21.56
2018-06-19T20:56:40.756Z,21.43
2018-06-19T20:58:16.740Z,21.43
2018-06-19T20:59:52.363Z,21.39
2018-06-19T21:01:28.023Z,21.31
2018-06-19T21:03:03.644Z,21.30
2018-06-19T21:04:39.219Z,21.26
2018-06-19T21:06:14.855Z,21.20
2018-06-19T21:07:50.414Z,21.19
2018-06-19T21:09:25.979Z,21.21
2018-06-19T21:11:01.574Z,21.22